Time;durP1;ratioP1;P1;durP2;ratioP2;P2;SDS_P1;SDS_P2;PMS_P1;PMS_P2;Temp;Humidity;BMP_temperature;BMP_pressure;BME280_temperature;BME280_humidity;BME280_pressure;Samples;Min_cycle;Max_cycle;Signal;HPM_P1;HPM_P2
2022/11/19 00:01:47;;;;;;;25.33;8.40;;;;;;;10.82;nan;-24119.19;5027037;28;20179;-74
2022/11/19 00:04:13;;;;;;;28.83;8.93;;;;;;;11.04;nan;-24125.38;5022622;28;20210;-75
2022/11/19 00:06:38;;;;;;;27.25;10.18;;;;;;;11.23;nan;-24130.75;5020816;28;20274;-73
2022/11/19 00:09:04;;;;;;;18.98;7.50;;;;;;;11.08;nan;-24126.66;5022487;28;20207;-74
2022/11/19 00:14:15;;;;;;;19.95;7.15;;;;;;;10.70;nan;-24115.94;5025232;28;20237;-74
2022/11/19 00:16:42;;;;;;;21.10;7.68;;;;;;;11.00;nan;-24124.25;5026166;28;20187;-75
2022/11/19 00:19:09;;;;;;;26.45;7.57;;;;;;;10.97;nan;-24123.41;5033247;28;20261;-73
2022/11/19 00:21:35;;;;;;;21.98;7.00;;;;;;;10.66;nan;-24114.66;5023132;28;20187;-75
2022/11/19 00:24:00;;;;;;;20.63;7.60;;;;;;;10.69;nan;-24115.66;5024899;28;20183;-75
2022/11/19 00:26:26;;;;;;;17.73;6.47;;;;;;;10.87;nan;-24120.59;5026799;28;20184;-74
2022/11/19 00:28:51;;;;;;;25.08;7.45;;;;;;;10.90;nan;-24121.44;5033318;28;20179;-75
2022/11/19 00:31:17;;;;;;;24.30;6.88;;;;;;;10.78;nan;-24118.03;5033062;28;20207;-74
2022/11/19 00:33:44;;;;;;;23.05;6.32;;;;;;;10.83;nan;-24119.47;5032740;28;20178;-74
2022/11/19 00:36:13;;;;;;;27.35;7.65;;;;;;;10.83;nan;-24119.59;5032629;28;20623;-74
2022/11/19 00:38:39;;;;;;;26.55;6.43;;;;;;;11.04;nan;-24125.38;5032916;28;20175;-73
2022/11/19 00:41:05;;;;;;;21.02;8.32;;;;;;;10.95;nan;-24123.00;5032843;28;20182;-74
2022/11/19 00:43:48;;;;;;;14.55;5.60;;;;;;;10.90;nan;-24121.44;5032888;28;20178;-74
2022/11/19 00:46:21;;;;;;;19.17;6.30;;;;;;;10.92;nan;-24122.00;5015159;28;20207;-74
2022/11/19 00:48:48;;;;;;;19.77;7.60;;;;;;;10.79;nan;-24118.47;5032506;28;20182;-73
2022/11/19 00:51:14;;;;;;;14.25;6.88;;;;;;;10.97;nan;-24123.53;5033056;28;20222;-73
2022/11/19 00:53:40;;;;;;;18.00;7.22;;;;;;;10.78;nan;-24118.03;5032736;28;20651;-73
2022/11/19 00:56:08;;;;;;;18.92;7.50;;;;;;;10.70;nan;-24115.94;5032697;28;20206;-74
2022/11/19 00:58:34;;;;;;;18.63;7.00;;;;;;;10.52;nan;-24111.00;5032650;28;20172;-74
2022/11/19 01:01:00;;;;;;;23.67;6.07;;;;;;;10.37;nan;-24106.63;5032534;28;20237;-72
2022/11/19 01:03:25;;;;;;;21.98;7.57;;;;;;;10.40;nan;-24107.47;5032298;28;20652;-73
2022/11/19 01:05:51;;;;;;;16.05;6.00;;;;;;;10.61;nan;-24113.53;5032264;28;20233;-74
2022/11/19 01:08:17;;;;;;;22.20;7.85;;;;;;;10.60;nan;-24113.25;5032353;28;20255;-74
2022/11/19 01:10:43;;;;;;;18.67;6.88;;;;;;;10.30;nan;-24104.78;5032085;28;20199;-74
2022/11/19 01:15:52;;;;;;;24.60;6.68;;;;;;;10.57;nan;-24112.41;5032087;28;20209;-74
2022/11/19 01:18:18;;;;;;;17.92;6.72;;;;;;;10.42;nan;-24108.16;5031919;28;20172;-73
2022/11/19 01:20:44;;;;;;;17.73;6.38;;;;;;;10.51;nan;-24110.56;5032126;28;20257;-73
2022/11/19 01:23:09;;;;;;;23.30;7.80;;;;;;;10.42;nan;-24108.03;5032080;28;20237;-72
2022/11/19 01:25:35;;;;;;;17.33;6.78;;;;;;;10.11;nan;-24099.56;5032222;28;20222;-73
2022/11/19 01:28:01;;;;;;;21.77;7.85;;;;;;;10.11;nan;-24099.41;5032019;28;20198;-74
2022/11/19 01:30:26;;;;;;;19.10;5.85;;;;;;;10.16;nan;-24100.97;5031929;28;20198;-73
2022/11/19 01:32:52;;;;;;;13.77;6.43;;;;;;;10.60;nan;-24113.13;5032241;28;20630;-74
2022/11/19 01:35:17;;;;;;;15.23;6.65;;;;;;;10.30;nan;-24104.78;5031964;28;20647;-73
2022/11/19 01:37:43;;;;;;;17.90;7.55;;;;;;;10.11;nan;-24099.56;5031819;28;20257;-74
2022/11/19 01:40:09;;;;;;;19.55;6.15;;;;;;;10.30;nan;-24104.78;5031834;28;20179;-73
2022/11/19 01:42:50;;;;;;;19.13;6.93;;;;;;;10.06;nan;-24098.00;5031621;28;20220;-74
2022/11/19 01:45:35;;;;;;;13.65;5.78;;;;;;;10.41;nan;-24107.88;5031813;28;20669;-73
2022/11/19 01:48:06;;;;;;;17.15;7.10;;;;;;;10.28;nan;-24104.06;5032280;28;20198;-74
2022/11/19 01:50:35;;;;;;;14.05;6.05;;;;;;;10.44;nan;-24108.59;5031874;28;20187;-74
2022/11/19 01:53:01;;;;;;;16.88;7.20;;;;;;;10.37;nan;-24106.63;5032094;28;20171;-73
2022/11/19 01:55:28;;;;;;;9.98;5.65;;;;;;;10.00;nan;-24096.31;5031410;28;20229;-73
2022/11/19 01:57:57;;;;;;;22.25;7.25;;;;;;;10.29;nan;-24104.50;5031885;28;20605;-72
2022/11/19 02:00:23;;;;;;;15.85;7.03;;;;;;;10.39;nan;-24107.31;5031897;28;20183;-73
2022/11/19 02:02:49;;;;;;;16.60;6.40;;;;;;;10.13;nan;-24100.13;5031587;28;20167;-73
2022/11/19 02:05:15;;;;;;;18.02;7.28;;;;;;;10.22;nan;-24102.38;5031498;28;20650;-73
2022/11/19 02:07:45;;;;;;;16.65;6.90;;;;;;;10.22;nan;-24102.38;5031703;28;20642;-73
2022/11/19 02:10:10;;;;;;;18.15;7.20;;;;;;;10.43;nan;-24108.47;5031639;28;20199;-73
2022/11/19 02:12:54;;;;;;;13.82;6.28;;;;;;;10.44;nan;-24108.75;5032129;28;20223;-74
2022/11/19 02:15:49;;;;;;;17.05;6.15;;;;;;;10.50;nan;-24110.28;5031674;28;20199;-73
2022/11/19 02:18:35;;;;;;;14.10;6.30;;;;;;;10.54;nan;-24111.56;5031296;28;20171;-74
2022/11/19 02:21:19;;;;;;;15.25;7.43;;;;;;;10.29;nan;-24104.50;5031773;28;20171;-74
2022/11/19 02:24:08;;;;;;;14.93;6.35;;;;;;;10.71;nan;-24116.06;5031505;28;20179;-74
2022/11/19 02:27:04;;;;;;;12.68;7.22;;;;;;;10.71;nan;-24116.06;5030970;28;20164;-72
2022/11/19 02:29:30;;;;;;;17.80;6.35;;;;;;;10.70;nan;-24115.78;5031641;28;20290;-73
2022/11/19 02:32:09;;;;;;;18.55;7.75;;;;;;;10.61;nan;-24113.53;5031194;28;20249;-74
2022/11/19 02:34:58;;;;;;;16.35;6.20;;;;;;;10.45;nan;-24109.03;5031246;28;20186;-74
2022/11/19 02:37:56;;;;;;;17.75;7.35;;;;;;;10.04;nan;-24097.59;5031692;28;20250;-73
2022/11/19 02:40:27;;;;;;;15.00;6.03;;;;;;;10.46;nan;-24109.16;5010149;28;20214;-74
2022/11/19 02:43:12;;;;;;;14.10;6.32;;;;;;;10.55;nan;-24111.84;5035181;28;20254;-73
2022/11/19 02:45:50;;;;;;;13.80;6.18;;;;;;;10.22;nan;-24102.38;5033379;28;20179;-74
2022/11/19 02:48:22;;;;;;;16.30;6.53;;;;;;;10.34;nan;-24105.78;5034624;28;20538;-74
2022/11/19 02:50:54;;;;;;;12.75;6.22;;;;;;;10.44;nan;-24108.59;5034430;28;20256;-73
2022/11/19 02:53:20;;;;;;;14.00;5.93;;;;;;;10.14;nan;-24100.25;5034657;28;20175;-73
2022/11/19 03:06:47;;;;;;;13.15;6.05;;;;;;;10.65;nan;-24114.53;5034732;28;20649;-74
2022/11/19 03:09:13;;;;;;;12.93;6.75;;;;;;;10.57;nan;-24112.41;5034749;28;20179;-74
2022/11/19 03:11:43;;;;;;;9.63;5.25;;;;;;;10.61;nan;-24113.41;5034669;28;20292;-74
2022/11/19 03:17:12;;;;;;;14.50;5.38;;;;;;;10.69;nan;-24115.50;5034417;28;20194;-74
2022/11/19 03:20:02;;;;;;;11.30;5.60;;;;;;;10.42;nan;-24108.16;5034501;28;20171;-74
2022/11/19 03:22:37;;;;;;;11.60;5.72;;;;;;;10.75;nan;-24117.19;5034333;28;20186;-74
2022/11/19 03:25:17;;;;;;;11.50;6.43;;;;;;;10.84;nan;-24119.75;5034141;28;20320;-74
2022/11/19 03:27:49;;;;;;;10.70;5.32;;;;;;;11.02;nan;-24124.97;5034822;28;20631;-73
2022/11/19 03:30:17;;;;;;;11.98;6.60;;;;;;;10.46;nan;-24109.16;5034378;28;20200;-74
2022/11/19 03:32:42;;;;;;;16.00;6.47;;;;;;;11.00;nan;-24124.41;5034130;28;20167;-73
2022/11/19 03:35:18;;;;;;;15.57;6.65;;;;;;;10.78;nan;-24118.19;5034075;28;20182;-74
2022/11/19 03:37:49;;;;;;;12.00;6.28;;;;;;;10.43;nan;-24108.31;5034127;28;20167;-73
2022/11/19 03:40:17;;;;;;;12.77;6.32;;;;;;;10.35;nan;-24106.06;5034279;28;20179;-75
2022/11/19 03:42:47;;;;;;;13.20;6.28;;;;;;;10.39;nan;-24107.31;5034061;28;20254;-73
2022/11/19 03:45:17;;;;;;;13.95;5.63;;;;;;;10.57;nan;-24112.41;5034033;28;20230;-75
2022/11/19 03:47:47;;;;;;;11.13;6.10;;;;;;;10.47;nan;-24109.44;5034038;28;20178;-73
2022/11/19 03:50:41;;;;;;;10.50;6.25;;;;;;;10.79;nan;-24118.34;5033888;28;20212;-74
2022/11/19 03:53:07;;;;;;;10.27;5.72;;;;;;;10.37;nan;-24106.63;5033818;28;20186;-75
2022/11/19 03:55:41;;;;;;;13.82;5.93;;;;;;;10.57;nan;-24112.41;5033952;28;20167;-74
2022/11/19 03:58:09;;;;;;;15.98;6.88;;;;;;;10.84;nan;-24119.88;5033822;28;20163;-74
2022/11/19 04:00:35;;;;;;;8.63;5.70;;;;;;;10.39;nan;-24107.31;5033535;28;20167;-74
2022/11/19 04:03:00;;;;;;;13.38;5.85;;;;;;;10.53;nan;-24111.28;5034157;28;20237;-75
2022/11/19 04:05:26;;;;;;;12.40;5.82;;;;;;;10.56;nan;-24112.13;5034012;28;20194;-75
2022/11/19 04:07:51;;;;;;;11.27;6.57;;;;;;;10.58;nan;-24112.69;5033408;28;20656;-74
2022/11/19 04:10:17;;;;;;;14.77;7.10;;;;;;;10.77;nan;-24117.78;5033490;28;20690;-74
2022/11/19 04:12:42;;;;;;;22.92;7.50;;;;;;;10.48;nan;-24109.88;5033380;28;20302;-74
2022/11/19 04:15:11;;;;;;;14.52;7.82;;;;;;;10.67;nan;-24114.94;5033073;28;20564;-73
2022/11/19 04:17:36;;;;;;;17.35;7.78;;;;;;;10.54;nan;-24111.41;5033753;28;20189;-73
2022/11/19 04:20:03;;;;;;;15.00;6.88;;;;;;;10.70;nan;-24115.78;5033209;28;20172;-73
2022/11/19 04:22:28;;;;;;;13.88;6.45;;;;;;;10.81;nan;-24118.91;5033150;28;20233;-74
2022/11/19 04:24:53;;;;;;;21.27;8.23;;;;;;;10.49;nan;-24110.16;5033390;28;20183;-73
2022/11/19 04:27:19;;;;;;;17.88;8.98;;;;;;;10.86;nan;-24120.44;5026231;28;20271;-73
2022/11/19 04:29:44;;;;;;;15.93;8.90;;;;;;;11.04;nan;-24125.53;5026081;28;20552;-73
2022/11/19 04:32:10;;;;;;;20.52;9.60;;;;;;;10.63;nan;-24114.09;5018740;28;20188;-73
2022/11/19 04:34:35;;;;;;;24.92;8.48;;;;;;;10.75;nan;-24117.19;5018650;28;20195;-74
2022/11/19 04:37:01;;;;;;;24.23;9.40;;;;;;;10.30;nan;-24104.78;5024389;28;20761;-74
2022/11/19 04:39:26;;;;;;;22.88;9.57;;;;;;;10.29;nan;-24104.38;5024828;28;20589;-74
2022/11/19 04:41:52;;;;;;;22.25;10.70;;;;;;;10.13;nan;-24099.97;5025033;28;20631;-73
2022/11/19 04:44:17;;;;;;;21.25;9.43;;;;;;;10.41;nan;-24107.88;5022133;28;20582;-74
2022/11/19 04:46:43;;;;;;;24.45;8.60;;;;;;;10.00;nan;-24096.44;5022864;28;20670;-74
2022/11/19 04:49:08;;;;;;;22.13;9.63;;;;;;;10.57;nan;-24112.41;5023416;28;20179;-74
2022/11/19 04:51:33;;;;;;;16.55;7.90;;;;;;;10.09;nan;-24098.84;5022020;28;20712;-74
2022/11/19 04:53:59;;;;;;;21.73;9.60;;;;;;;10.48;nan;-24109.72;5023581;28;20187;-74
2022/11/19 04:56:24;;;;;;;27.08;8.80;;;;;;;10.03;nan;-24097.16;5022565;28;20187;-75
2022/11/19 04:58:50;;;;;;;19.40;9.23;;;;;;;10.25;nan;-24103.38;5021667;28;20183;-74
2022/11/19 05:01:15;;;;;;;25.27;8.32;;;;;;;10.02;nan;-24096.88;5023305;28;20279;-73
2022/11/19 05:03:41;;;;;;;26.10;8.95;;;;;;;10.47;nan;-24109.44;5020682;28;20639;-73
2022/11/19 05:06:07;;;;;;;14.68;8.30;;;;;;;10.50;nan;-24110.28;5024609;28;20180;-75
2022/11/19 05:08:32;;;;;;;14.38;7.60;;;;;;;10.45;nan;-24108.88;5021842;28;20179;-74
2022/11/19 05:10:57;;;;;;;17.20;8.23;;;;;;;10.18;nan;-24101.41;5002850;28;20314;-73
2022/11/19 05:13:23;;;;;;;21.08;7.97;;;;;;;10.34;nan;-24105.91;5036762;28;20213;-74
2022/11/19 05:15:48;;;;;;;19.05;8.23;;;;;;;10.32;nan;-24105.34;5022292;28;20196;-74
2022/11/19 05:18:14;;;;;;;19.88;8.32;;;;;;;9.88;nan;-24093.06;5019203;28;20196;-75
2022/11/19 05:20:40;;;;;;;17.50;7.05;;;;;;;9.76;nan;-24089.81;5017158;28;20662;-74
2022/11/19 05:23:05;;;;;;;16.40;6.95;;;;;;;9.91;nan;-24093.91;5018484;28;20179;-73
2022/11/19 05:25:30;;;;;;;12.20;6.75;;;;;;;9.90;nan;-24093.47;4940376;28;20646;-74
2022/11/19 05:27:56;;;;;;;16.80;7.38;;;;;;;9.38;nan;-24078.94;5017525;28;20275;-72
2022/11/19 05:30:22;;;;;;;23.33;8.82;;;;;;;9.44;nan;-24080.63;5038704;28;20206;-73
2022/11/19 05:32:47;;;;;;;13.88;7.50;;;;;;;9.70;nan;-24087.97;5020040;28;20191;-74
2022/11/19 05:35:13;;;;;;;15.82;7.43;;;;;;;9.71;nan;-24088.41;5038182;28;20187;-74
2022/11/19 05:37:38;;;;;;;24.52;8.70;;;;;;;9.86;nan;-24092.34;5029400;28;20665;-74
2022/11/19 05:40:06;;;;;;;18.67;7.65;;;;;;;9.48;nan;-24081.91;5030970;28;20187;-74
2022/11/19 05:42:31;;;;;;;23.90;9.77;;;;;;;9.16;nan;-24073.00;5017281;28;20187;-73
2022/11/19 05:44:56;;;;;;;21.67;8.52;;;;;;;9.34;nan;-24077.81;5038316;28;20179;-73
2022/11/19 05:47:22;;;;;;;13.05;8.05;;;;;;;9.36;nan;-24078.50;5029731;28;20209;-73
2022/11/19 05:49:47;;;;;;;16.38;7.05;;;;;;;9.25;nan;-24075.53;5035056;28;20187;-74
2022/11/19 05:52:13;;;;;;;18.88;6.75;;;;;;;9.16;nan;-24073.00;5029132;28;20182;-74
2022/11/19 05:54:38;;;;;;;14.82;7.85;;;;;;;8.95;nan;-24066.91;5030992;28;20226;-73
2022/11/19 05:57:04;;;;;;;16.27;7.53;;;;;;;9.52;nan;-24082.91;5038906;28;20241;-73
2022/11/19 05:59:30;;;;;;;16.67;8.35;;;;;;;9.63;nan;-24086.00;5031273;28;20245;-74
2022/11/19 06:01:56;;;;;;;21.60;8.15;;;;;;;9.81;nan;-24090.94;5024430;28;20233;-74
2022/11/19 06:04:21;;;;;;;16.58;8.45;;;;;;;9.77;nan;-24089.94;5035210;28;20187;-74
2022/11/19 06:06:47;;;;;;;20.30;8.50;;;;;;;9.31;nan;-24077.25;5025810;28;20212;-72
2022/11/19 06:09:12;;;;;;;13.43;8.00;;;;;;;9.71;nan;-24088.25;5019710;28;20189;-74
2022/11/19 06:11:47;;;;;;;14.32;7.03;;;;;;;9.14;nan;-24072.28;5015596;28;20238;-73
2022/11/19 06:14:23;;;;;;;18.63;7.80;;;;;;;9.28;nan;-24076.25;5020434;28;20178;-74
2022/11/19 06:16:54;;;;;;;17.42;6.80;;;;;;;9.75;nan;-24089.53;5019515;28;20627;-76
2022/11/19 06:19:20;;;;;;;12.93;7.13;;;;;;;9.85;nan;-24092.22;5030503;28;20194;-72
2022/11/19 06:21:46;;;;;;;12.90;6.35;;;;;;;9.81;nan;-24090.94;5025885;28;20191;-74
2022/11/19 06:24:13;;;;;;;12.98;6.15;;;;;;;9.48;nan;-24081.75;5017686;28;20640;-75
2022/11/19 06:26:38;;;;;;;18.17;7.05;;;;;;;9.67;nan;-24087.28;5035136;28;20152;-73
2022/11/19 06:29:05;;;;;;;15.75;6.97;;;;;;;10.17;nan;-24101.13;5035585;28;20183;-75
2022/11/19 06:31:30;;;;;;;16.63;7.38;;;;;;;10.06;nan;-24098.00;5035102;28;20199;-75
2022/11/19 06:33:56;;;;;;;14.30;7.20;;;;;;;10.11;nan;-24099.56;5035330;28;20258;-75
2022/11/19 06:36:21;;;;;;;19.02;6.45;;;;;;;10.37;nan;-24106.75;5035764;28;20258;-74
2022/11/19 06:38:48;;;;;;;14.15;7.03;;;;;;;10.37;nan;-24106.63;5035530;28;20197;-74
2022/11/19 06:41:13;;;;;;;14.25;7.70;;;;;;;10.27;nan;-24103.78;5034548;28;20188;-73
2022/11/19 06:43:39;;;;;;;18.20;7.05;;;;;;;10.62;nan;-24113.81;5035245;28;20171;-73
2022/11/19 06:46:04;;;;;;;12.23;6.93;;;;;;;10.55;nan;-24111.69;5035087;28;20167;-76
2022/11/19 06:48:30;;;;;;;15.48;6.65;;;;;;;10.32;nan;-24105.34;5035286;28;20159;-73
2022/11/19 06:50:56;;;;;;;11.45;6.15;;;;;;;9.52;nan;-24082.91;5035019;28;20268;-75
2022/11/19 06:53:21;;;;;;;14.63;7.63;;;;;;;10.92;nan;-24122.00;5034791;28;20214;-75
2022/11/19 06:55:46;;;;;;;12.07;5.85;;;;;;;10.52;nan;-24110.84;5034692;28;20653;-74
2022/11/19 06:58:13;;;;;;;12.20;6.15;;;;;;;10.64;nan;-24114.38;5034480;28;20186;-73
2022/11/19 07:00:38;;;;;;;13.07;7.03;;;;;;;10.72;nan;-24116.34;5034846;28;20269;-75
2022/11/19 07:03:04;;;;;;;15.45;6.93;;;;;;;11.03;nan;-24125.25;5034848;28;20202;-73
2022/11/19 07:05:29;;;;;;;13.57;7.25;;;;;;;10.70;nan;-24115.94;5034843;28;20236;-73
2022/11/19 07:07:55;;;;;;;19.27;8.15;;;;;;;10.69;nan;-24115.50;5034398;28;20302;-75
2022/11/19 07:10:20;;;;;;;19.65;8.05;;;;;;;10.59;nan;-24112.97;5034029;28;20195;-74
2022/11/19 07:12:45;;;;;;;14.98;8.55;;;;;;;11.13;nan;-24127.91;5034475;28;20215;-73
2022/11/19 07:15:11;;;;;;;14.35;7.38;;;;;;;9.81;nan;-24090.94;5034438;28;20540;-75
2022/11/19 07:17:36;;;;;;;12.30;7.15;;;;;;;10.93;nan;-24122.41;5034210;28;20171;-74
2022/11/19 07:20:03;;;;;;;17.98;8.50;;;;;;;10.89;nan;-24121.16;5034262;28;20651;-75
2022/11/19 07:22:29;;;;;;;15.65;7.65;;;;;;;11.31;nan;-24132.84;5032477;28;20237;-74
2022/11/19 07:24:54;;;;;;;17.60;8.05;;;;;;;11.33;nan;-24133.56;5034290;28;20164;-75
2022/11/19 07:27:20;;;;;;;16.65;7.60;;;;;;;11.45;nan;-24136.94;5033995;28;20542;-75
2022/11/19 07:29:45;;;;;;;20.55;8.45;;;;;;;11.75;nan;-24145.25;5027715;28;20237;-75
2022/11/19 07:32:11;;;;;;;15.43;7.97;;;;;;;12.08;nan;-24154.25;5017629;28;20290;-75
2022/11/19 07:34:36;;;;;;;16.45;7.75;;;;;;;12.40;nan;-24163.41;5034107;28;20172;-74
2022/11/19 07:37:01;;;;;;;15.85;8.60;;;;;;;12.49;nan;-24165.66;5033966;28;20175;-74
2022/11/19 07:39:27;;;;;;;18.98;8.75;;;;;;;12.82;nan;-24174.94;5034416;28;20167;-74
2022/11/19 07:44:36;;;;;;;15.45;8.15;;;;;;;12.98;nan;-24179.31;5034139;28;20185;-76
2022/11/19 07:47:02;;;;;;;21.48;9.50;;;;;;;13.18;nan;-24184.94;5034500;28;20171;-74
2022/11/19 07:49:27;;;;;;;23.02;8.13;;;;;;;13.33;nan;-24189.00;5033887;28;20202;-75
2022/11/19 07:51:53;;;;;;;20.17;9.70;;;;;;;13.80;nan;-24202.06;5032461;28;20207;-74
2022/11/19 07:54:19;;;;;;;15.98;7.55;;;;;;;13.68;nan;-24198.84;5033291;28;20245;-76
2022/11/19 07:56:44;;;;;;;17.58;7.78;;;;;;;13.60;nan;-24196.72;5027099;28;20195;-75
2022/11/19 07:59:11;;;;;;;16.58;8.00;;;;;;;13.84;nan;-24203.31;5018965;28;20190;-74
2022/11/19 08:01:37;;;;;;;21.77;8.77;;;;;;;13.88;nan;-24204.31;5030998;28;20665;-76
2022/11/19 08:04:04;;;;;;;16.23;8.57;;;;;;;13.91;nan;-24205.28;5033257;28;20225;-74
2022/11/19 08:06:29;;;;;;;16.80;8.90;;;;;;;13.75;nan;-24200.66;5033699;28;20551;-76
2022/11/19 08:08:56;;;;;;;17.45;8.38;;;;;;;13.31;nan;-24188.59;5033296;28;20548;-74
2022/11/19 08:11:22;;;;;;;16.98;7.85;;;;;;;13.55;nan;-24195.19;5028585;28;20239;-75
2022/11/19 08:13:48;;;;;;;20.92;7.97;;;;;;;13.73;nan;-24200.25;5020811;28;20199;-78
2022/11/19 08:19:08;;;;;;;16.55;8.13;;;;;;;13.54;nan;-24194.91;5033329;28;20194;-74
2022/11/19 08:21:35;;;;;;;18.52;8.27;;;;;;;13.73;nan;-24200.38;5013564;28;20164;-74
2022/11/19 08:24:01;;;;;;;14.30;7.07;;;;;;;13.80;nan;-24202.06;5013343;28;20180;-75
2022/11/19 08:26:27;;;;;;;14.57;6.95;;;;;;;14.14;nan;-24211.75;5013828;28;20192;-75
2022/11/19 08:28:53;;;;;;;19.23;8.75;;;;;;;14.27;nan;-24215.25;5013053;28;20677;-75
2022/11/19 08:31:18;;;;;;;19.63;8.88;;;;;;;14.38;nan;-24218.34;4252289;28;20994;-77
2022/11/19 08:33:44;;;;;;;19.90;9.23;;;;;;;14.68;nan;-24226.47;4172078;28;20961;-75
2022/11/19 08:36:09;;;;;;;17.00;8.13;;;;;;;14.64;nan;-24225.50;5017978;28;20191;-75
2022/11/19 08:38:35;;;;;;;17.42;8.65;;;;;;;14.82;nan;-24230.41;5032325;28;20538;-73
2022/11/19 08:43:44;;;;;;;19.63;9.13;;;;;;;15.41;nan;-24246.78;5032714;28;20548;-76
2022/11/19 08:46:09;;;;;;;21.63;9.43;;;;;;;15.50;nan;-24249.31;5032458;28;20179;-73
2022/11/19 08:48:35;;;;;;;20.90;9.50;;;;;;;16.12;nan;-24266.38;5032364;28;20229;-74
2022/11/19 08:51:05;;;;;;;19.02;8.63;;;;;;;16.26;nan;-24270.31;5031596;28;20317;-75
2022/11/19 08:53:31;;;;;;;22.00;9.27;;;;;;;16.24;nan;-24269.88;5032680;28;20186;-73
2022/11/19 08:55:57;;;;;;;25.13;10.98;;;;;;;16.66;nan;-24281.34;5032313;28;20179;-76
2022/11/19 08:58:22;;;;;;;22.77;8.95;;;;;;;16.76;nan;-24284.13;5032359;28;20210;-76
2022/11/19 09:00:48;;;;;;;20.33;10.35;;;;;;;16.85;nan;-24286.66;5032042;28;20250;-74
2022/11/19 09:03:14;;;;;;;18.70;8.98;;;;;;;16.97;nan;-24289.88;5032412;28;20177;-74
2022/11/19 09:05:40;;;;;;;21.23;9.43;;;;;;;17.04;nan;-24291.81;5014825;28;20233;-75
2022/11/19 09:08:06;;;;;;;22.65;9.35;;;;;;;17.20;nan;-24296.44;5032561;28;20642;-75
2022/11/19 09:10:32;;;;;;;21.23;9.15;;;;;;;17.00;nan;-24290.72;5031936;28;20237;-75
2022/11/19 09:12:57;;;;;;;15.85;8.90;;;;;;;16.98;nan;-24290.16;5032023;28;20203;-76
2022/11/19 09:15:23;;;;;;;23.10;10.70;;;;;;;16.45;nan;-24275.63;5032023;28;20596;-75
2022/11/19 09:17:48;;;;;;;20.15;9.60;;;;;;;16.12;nan;-24266.53;5030734;28;20258;-74
2022/11/19 09:20:13;;;;;;;21.33;9.50;;;;;;;16.03;nan;-24263.88;5030160;28;20190;-74
2022/11/19 09:22:39;;;;;;;28.08;11.25;;;;;;;15.58;nan;-24251.56;5031667;28;20171;-73
2022/11/19 09:25:05;;;;;;;32.53;11.45;;;;;;;14.98;nan;-24235.03;5031518;28;20682;-75
2022/11/19 09:27:30;;;;;;;18.30;10.27;;;;;;;14.79;nan;-24229.69;5031609;28;20575;-75
2022/11/19 09:29:56;;;;;;;24.48;11.27;;;;;;;14.75;nan;-24228.56;5031154;28;20183;-75
2022/11/19 09:32:21;;;;;;;25.83;10.50;;;;;;;14.78;nan;-24229.28;5031107;28;20258;-74
2022/11/19 09:34:47;;;;;;;22.65;9.95;;;;;;;15.31;nan;-24244.13;5030975;28;20605;-73
2022/11/19 09:37:12;;;;;;;26.42;12.15;;;;;;;15.05;nan;-24236.84;5030671;28;20171;-74
2022/11/19 09:39:38;;;;;;;20.25;9.05;;;;;;;15.34;nan;-24244.84;5031944;28;20164;-74
2022/11/19 09:42:45;;;;;;;20.45;9.52;;;;;;;16.02;nan;-24263.59;5031009;28;20708;-75
2022/11/19 09:45:13;;;;;;;19.23;9.13;;;;;;;16.10;nan;-24265.81;5032047;28;20639;-75
2022/11/19 09:48:16;;;;;;;18.33;9.13;;;;;;;16.39;nan;-24273.78;5031671;28;20218;-75
2022/11/19 09:51:09;;;;;;;20.00;8.32;;;;;;;16.44;nan;-24275.19;5030961;28;20202;-75
2022/11/19 09:53:45;;;;;;;20.70;9.52;;;;;;;16.23;nan;-24269.47;5031951;28;20595;-75
2022/11/19 09:56:17;;;;;;;18.77;9.73;;;;;;;16.27;nan;-24270.59;5031583;28;20297;-76
2022/11/19 09:58:44;;;;;;;22.33;9.30;;;;;;;16.60;nan;-24279.81;5031622;28;20160;-75
2022/11/19 10:01:15;;;;;;;20.27;9.25;;;;;;;16.62;nan;-24280.38;5031381;28;20183;-74
2022/11/19 10:03:46;;;;;;;19.63;8.65;;;;;;;16.97;nan;-24289.88;5031536;28;20753;-74
2022/11/19 10:06:14;;;;;;;17.92;8.80;;;;;;;17.14;nan;-24294.75;5031757;28;20613;-75
2022/11/19 10:09:08;;;;;;;20.60;8.65;;;;;;;16.98;nan;-24290.16;5031617;28;20251;-75
2022/11/19 10:11:45;;;;;;;17.95;8.35;;;;;;;17.29;nan;-24298.66;4560660;28;20281;-75
2022/11/19 10:14:31;;;;;;;20.27;9.00;;;;;;;17.18;nan;-24295.72;5031839;28;20175;-74
2022/11/19 10:17:09;;;;;;;19.42;9.38;;;;;;;17.68;nan;-24309.56;5031351;28;20171;-73
2022/11/19 10:20:00;;;;;;;18.58;8.32;;;;;;;17.86;nan;-24314.44;5031204;28;20175;-74
2022/11/19 10:22:37;;;;;;;16.15;8.23;;;;;;;17.54;nan;-24305.63;5025309;28;20700;-75
2022/11/19 10:25:18;;;;;;;18.60;9.23;;;;;;;17.46;nan;-24303.41;5031157;28;20190;-75
2022/11/19 10:27:50;;;;;;;19.33;8.55;;;;;;;16.86;nan;-24286.94;5031208;28;20179;-74
2022/11/19 10:30:20;;;;;;;18.33;8.77;;;;;;;16.61;nan;-24279.94;5030693;28;20175;-74
2022/11/19 10:32:57;;;;;;;19.83;8.35;;;;;;;16.98;nan;-24290.16;5031135;28;20199;-74
2022/11/19 10:35:35;;;;;;;19.58;8.88;;;;;;;16.62;nan;-24280.22;5031406;28;20159;-75
2022/11/19 10:38:04;;;;;;;15.55;8.65;;;;;;;16.26;nan;-24270.31;5031621;28;20163;-74
2022/11/19 10:40:43;;;;;;;19.25;9.35;;;;;;;16.58;nan;-24279.13;5030683;28;20194;-76
2022/11/19 10:43:30;;;;;;;22.00;8.70;;;;;;;16.73;nan;-24283.31;5030959;28;20340;-74
2022/11/19 10:45:58;;;;;;;16.27;8.60;;;;;;;16.89;nan;-24287.78;5030821;28;20649;-74
2022/11/19 10:48:36;;;;;;;17.80;8.77;;;;;;;17.28;nan;-24298.53;5030700;28;20425;-73
2022/11/19 10:51:15;;;;;;;20.27;8.57;;;;;;;17.37;nan;-24301.03;5030718;28;20206;-75
2022/11/19 10:53:41;;;;;;;17.33;8.07;;;;;;;17.72;nan;-24310.66;5031373;28;20167;-76
2022/11/19 10:56:22;;;;;;;18.63;9.02;;;;;;;17.90;nan;-24315.53;5030763;28;20186;-74
2022/11/19 10:58:53;;;;;;;18.75;9.00;;;;;;;18.20;nan;-24323.91;5030986;28;20626;-75
2022/11/19 11:01:30;;;;;;;17.92;8.32;;;;;;;17.85;nan;-24314.28;5033016;28;20182;-75
2022/11/19 11:04:14;;;;;;;20.42;8.38;;;;;;;18.23;nan;-24324.59;5033991;28;20558;-74
2022/11/19 11:06:53;;;;;;;17.02;8.15;;;;;;;18.09;nan;-24320.84;5034711;28;20627;-75
2022/11/19 11:09:37;;;;;;;15.88;8.38;;;;;;;18.01;nan;-24318.75;5034207;28;20179;-74
2022/11/19 11:15:23;;;;;;;12.98;6.80;;;;;;;17.46;nan;-24303.56;5034350;28;20302;-75
2022/11/19 11:18:04;;;;;;;17.75;7.75;;;;;;;17.56;nan;-24306.34;5034127;28;20345;-75
2022/11/19 11:20:30;;;;;;;16.40;7.60;;;;;;;17.56;nan;-24306.19;5034107;28;20668;-75
2022/11/19 11:23:09;;;;;;;19.17;7.68;;;;;;;17.39;nan;-24301.59;5034119;28;20175;-75
2022/11/19 11:25:37;;;;;;;13.35;7.35;;;;;;;17.99;nan;-24318.19;5034317;28;20626;-75
2022/11/19 11:28:14;;;;;;;14.05;7.10;;;;;;;17.99;nan;-24318.06;5034180;28;20166;-75
2022/11/19 11:31:01;;;;;;;12.30;6.75;;;;;;;18.20;nan;-24323.78;5033960;28;20190;-75
2022/11/19 11:33:37;;;;;;;15.20;7.55;;;;;;;18.28;nan;-24326.00;5033919;28;20203;-74
2022/11/19 11:36:13;;;;;;;14.07;6.32;;;;;;;18.61;nan;-24335.06;5033968;28;20171;-75
2022/11/19 11:38:47;;;;;;;15.50;6.30;;;;;;;18.86;nan;-24342.03;5033816;28;20186;-74
2022/11/19 11:41:16;;;;;;;12.02;5.88;;;;;;;18.75;nan;-24339.09;5033829;28;20650;-75
2022/11/19 11:44:00;;;;;;;13.88;6.35;;;;;;;18.53;nan;-24332.97;5033949;28;20163;-74
2022/11/19 11:46:47;;;;;;;11.60;5.93;;;;;;;18.21;nan;-24324.06;5032202;28;20221;-74
2022/11/19 11:49:33;;;;;;;13.32;6.07;;;;;;;18.82;nan;-24340.91;5033815;28;20642;-75
2022/11/19 11:52:07;;;;;;;14.43;7.03;;;;;;;18.59;nan;-24334.63;5033705;28;20202;-74
2022/11/19 11:54:33;;;;;;;12.73;6.15;;;;;;;18.67;nan;-24336.72;5033862;28;20186;-74
2022/11/19 11:57:14;;;;;;;10.18;4.97;;;;;;;18.44;nan;-24330.59;5033299;28;20623;-74
2022/11/19 11:59:39;;;;;;;11.85;5.88;;;;;;;18.13;nan;-24321.97;5033947;28;20184;-76
2022/11/19 12:02:07;;;;;;;8.15;4.38;;;;;;;17.78;nan;-24312.19;5033361;28;20654;-74
2022/11/19 12:04:34;;;;;;;7.82;4.85;;;;;;;18.28;nan;-24326.13;5033800;28;20171;-74
2022/11/19 12:07:22;;;;;;;8.38;4.45;;;;;;;18.31;nan;-24326.84;5032122;28;20200;-75
2022/11/19 12:10:04;;;;;;;8.48;4.22;;;;;;;18.67;nan;-24336.72;5029192;28;20187;-76
2022/11/19 12:12:44;;;;;;;5.40;3.67;;;;;;;18.96;nan;-24344.81;5032173;28;20700;-75
2022/11/19 12:15:31;;;;;;;8.70;4.47;;;;;;;19.37;nan;-24356.22;5033556;28;20170;-74
2022/11/19 12:18:16;;;;;;;7.70;4.68;;;;;;;19.40;nan;-24357.06;5013423;28;20247;-75